sensor_id;sensor_type;location;lat;lon;timestamp;temperature;humidity
8557;DHT22;4316;53.840;10.762;2022-10-16T00:01:19;15.20;99.90
8557;DHT22;4316;53.840;10.762;2022-10-16T00:03:45;15.10;99.90
8557;DHT22;4316;53.840;10.762;2022-10-16T00:06:12;15.10;99.90
8557;DHT22;4316;53.840;10.762;2022-10-16T00:08:39;15.10;99.90
8557;DHT22;4316;53.840;10.762;2022-10-16T00:13:35;15.10;99.90
8557;DHT22;4316;53.840;10.762;2022-10-16T00:16:03;15.20;99.90
8557;DHT22;4316;53.840;10.762;2022-10-16T00:18:29;15.20;99.90
8557;DHT22;4316;53.840;10.762;2022-10-16T00:20:56;15.20;99.90
8557;DHT22;4316;53.840;10.762;2022-10-16T00:23:26;15.10;99.90
8557;DHT22;4316;53.840;10.762;2022-10-16T00:26:04;15.00;99.90
8557;DHT22;4316;53.840;10.762;2022-10-16T00:28:30;15.10;99.90
8557;DHT22;4316;53.840;10.762;2022-10-16T00:30:56;15.10;99.90
8557;DHT22;4316;53.840;10.762;2022-10-16T00:33:22;15.10;99.90
8557;DHT22;4316;53.840;10.762;2022-10-16T00:35:48;15.10;99.90
8557;DHT22;4316;53.840;10.762;2022-10-16T00:38:14;15.10;99.90
8557;DHT22;4316;53.840;10.762;2022-10-16T00:40:40;15.10;99.90
8557;DHT22;4316;53.840;10.762;2022-10-16T00:46:02;15.10;99.90
8557;DHT22;4316;53.840;10.762;2022-10-16T00:48:29;15.00;99.90
8557;DHT22;4316;53.840;10.762;2022-10-16T00:50:56;15.00;99.90
8557;DHT22;4316;53.840;10.762;2022-10-16T00:53:24;15.00;99.90
8557;DHT22;4316;53.840;10.762;2022-10-16T00:55:51;15.00;99.90
8557;DHT22;4316;53.840;10.762;2022-10-16T00:58:17;14.90;99.90
8557;DHT22;4316;53.840;10.762;2022-10-16T01:00:43;14.90;99.90
8557;DHT22;4316;53.840;10.762;2022-10-16T01:03:28;14.90;99.90
8557;DHT22;4316;53.840;10.762;2022-10-16T01:08:43;14.90;99.90
8557;DHT22;4316;53.840;10.762;2022-10-16T01:13:43;14.80;99.90
8557;DHT22;4316;53.840;10.762;2022-10-16T01:18:57;14.80;99.90
8557;DHT22;4316;53.840;10.762;2022-10-16T01:21:35;14.80;99.90
8557;DHT22;4316;53.840;10.762;2022-10-16T01:24:37;14.80;99.90
8557;DHT22;4316;53.840;10.762;2022-10-16T01:27:14;14.70;99.90
8557;DHT22;4316;53.840;10.762;2022-10-16T01:35:14;14.70;99.90
8557;DHT22;4316;53.840;10.762;2022-10-16T01:37:56;14.70;99.90
8557;DHT22;4316;53.840;10.762;2022-10-16T01:40:25;14.60;99.90
8557;DHT22;4316;53.840;10.762;2022-10-16T01:43:06;14.60;99.90
8557;DHT22;4316;53.840;10.762;2022-10-16T01:45:34;14.60;99.90
8557;DHT22;4316;53.840;10.762;2022-10-16T01:48:02;14.60;99.90
8557;DHT22;4316;53.840;10.762;2022-10-16T01:50:34;14.60;99.90
8557;DHT22;4316;53.840;10.762;2022-10-16T01:53:02;14.60;99.90
8557;DHT22;4316;53.840;10.762;2022-10-16T01:55:32;14.60;99.90
8557;DHT22;4316;53.840;10.762;2022-10-16T01:58:01;14.60;99.90
8557;DHT22;4316;53.840;10.762;2022-10-16T02:00:29;14.60;99.90
8557;DHT22;4316;53.840;10.762;2022-10-16T02:02:55;14.50;99.90
8557;DHT22;4316;53.840;10.762;2022-10-16T02:05:34;14.50;99.90
8557;DHT22;4316;53.840;10.762;2022-10-16T02:08:06;14.50;99.90
8557;DHT22;4316;53.840;10.762;2022-10-16T14:30:56;18.60;99.90
8557;DHT22;4316;53.840;10.762;2022-10-16T14:33:30;18.60;99.90
8557;DHT22;4316;53.840;10.762;2022-10-16T14:36:05;18.70;99.90
8557;DHT22;4316;53.840;10.762;2022-10-16T14:38:38;18.60;99.90
8557;DHT22;4316;53.840;10.762;2022-10-16T14:41:04;18.60;99.90
8557;DHT22;4316;53.840;10.762;2022-10-16T14:43:39;18.60;99.90
8557;DHT22;4316;53.840;10.762;2022-10-16T14:46:17;18.50;99.90
8557;DHT22;4316;53.840;10.762;2022-10-16T14:48:46;18.40;99.90
8557;DHT22;4316;53.840;10.762;2022-10-16T14:51:17;18.40;99.90
8557;DHT22;4316;53.840;10.762;2022-10-16T14:53:43;18.30;99.90
8557;DHT22;4316;53.840;10.762;2022-10-16T14:56:16;18.30;99.90
8557;DHT22;4316;53.840;10.762;2022-10-16T14:58:42;18.20;99.90
8557;DHT22;4316;53.840;10.762;2022-10-16T15:01:10;18.20;99.90
8557;DHT22;4316;53.840;10.762;2022-10-16T15:03:40;18.20;99.90
8557;DHT22;4316;53.840;10.762;2022-10-16T15:06:11;18.10;99.90
8557;DHT22;4316;53.840;10.762;2022-10-16T15:08:37;18.10;99.90
8557;DHT22;4316;53.840;10.762;2022-10-16T15:11:04;18.00;99.90
8557;DHT22;4316;53.840;10.762;2022-10-16T15:13:29;18.00;99.90
8557;DHT22;4316;53.840;10.762;2022-10-16T15:15:55;17.90;99.90
8557;DHT22;4316;53.840;10.762;2022-10-16T15:18:21;17.80;99.90
8557;DHT22;4316;53.840;10.762;2022-10-16T15:20:49;17.80;99.90
8557;DHT22;4316;53.840;10.762;2022-10-16T15:23:21;17.80;99.90
8557;DHT22;4316;53.840;10.762;2022-10-16T15:28:15;17.60;99.90
8557;DHT22;4316;53.840;10.762;2022-10-16T15:30:42;17.60;99.90
8557;DHT22;4316;53.840;10.762;2022-10-16T15:33:18;17.60;99.90
8557;DHT22;4316;53.840;10.762;2022-10-16T15:35:46;17.60;99.90
8557;DHT22;4316;53.840;10.762;2022-10-16T15:38:14;17.50;99.90
8557;DHT22;4316;53.840;10.762;2022-10-16T15:40:40;17.50;99.90
8557;DHT22;4316;53.840;10.762;2022-10-16T15:43:06;17.40;99.90
8557;DHT22;4316;53.840;10.762;2022-10-16T15:45:32;17.40;99.90
8557;DHT22;4316;53.840;10.762;2022-10-16T15:47:58;17.40;99.90
8557;DHT22;4316;53.840;10.762;2022-10-16T15:50:24;17.30;99.90
8557;DHT22;4316;53.840;10.762;2022-10-16T15:52:50;17.30;99.90
8557;DHT22;4316;53.840;10.762;2022-10-16T15:55:16;17.20;99.90
8557;DHT22;4316;53.840;10.762;2022-10-16T15:57:44;17.20;99.90
8557;DHT22;4316;53.840;10.762;2022-10-16T16:00:13;17.20;99.90
8557;DHT22;4316;53.840;10.762;2022-10-16T16:02:40;17.20;99.90
8557;DHT22;4316;53.840;10.762;2022-10-16T16:05:07;17.10;99.90
8557;DHT22;4316;53.840;10.762;2022-10-16T16:07:37;17.00;99.90
8557;DHT22;4316;53.840;10.762;2022-10-16T16:10:06;17.00;99.90
8557;DHT22;4316;53.840;10.762;2022-10-16T16:12:33;16.90;99.90
8557;DHT22;4316;53.840;10.762;2022-10-16T16:14:59;16.70;99.90
8557;DHT22;4316;53.840;10.762;2022-10-16T16:17:25;16.60;99.90
8557;DHT22;4316;53.840;10.762;2022-10-16T16:19:51;16.50;99.90
8557;DHT22;4316;53.840;10.762;2022-10-16T16:22:17;16.40;99.90
8557;DHT22;4316;53.840;10.762;2022-10-16T16:24:43;16.40;99.90
8557;DHT22;4316;53.840;10.762;2022-10-16T16:27:09;16.50;99.90
8557;DHT22;4316;53.840;10.762;2022-10-16T16:29:34;16.50;99.90
8557;DHT22;4316;53.840;10.762;2022-10-16T16:32:01;16.50;99.90
8557;DHT22;4316;53.840;10.762;2022-10-16T16:34:27;16.40;99.90
8557;DHT22;4316;53.840;10.762;2022-10-16T16:36:54;16.30;99.90
8557;DHT22;4316;53.840;10.762;2022-10-16T16:39:21;16.30;99.90
8557;DHT22;4316;53.840;10.762;2022-10-16T16:41:47;16.30;99.90
8557;DHT22;4316;53.840;10.762;2022-10-16T16:44:14;16.30;99.90
8557;DHT22;4316;53.840;10.762;2022-10-16T16:46:41;16.10;99.90
8557;DHT22;4316;53.840;10.762;2022-10-16T16:49:10;16.10;99.90
8557;DHT22;4316;53.840;10.762;2022-10-16T16:51:36;15.90;99.90
8557;DHT22;4316;53.840;10.762;2022-10-16T16:54:02;15.90;99.90
8557;DHT22;4316;53.840;10.762;2022-10-16T16:56:28;15.80;99.90
8557;DHT22;4316;53.840;10.762;2022-10-16T16:58:56;15.70;99.90
8557;DHT22;4316;53.840;10.762;2022-10-16T17:01:24;15.60;99.90
8557;DHT22;4316;53.840;10.762;2022-10-16T17:03:51;15.60;99.90
8557;DHT22;4316;53.840;10.762;2022-10-16T17:06:19;15.60;99.90
8557;DHT22;4316;53.840;10.762;2022-10-16T17:08:45;15.60;99.90
8557;DHT22;4316;53.840;10.762;2022-10-16T17:11:17;15.60;99.90
8557;DHT22;4316;53.840;10.762;2022-10-16T17:13:43;15.50;99.90
8557;DHT22;4316;53.840;10.762;2022-10-16T17:16:09;15.40;99.90
8557;DHT22;4316;53.840;10.762;2022-10-16T17:18:36;15.30;99.90
8557;DHT22;4316;53.840;10.762;2022-10-16T17:21:04;15.20;99.90
8557;DHT22;4316;53.840;10.762;2022-10-16T17:23:30;15.00;99.90
8557;DHT22;4316;53.840;10.762;2022-10-16T17:26:02;14.90;99.90
8557;DHT22;4316;53.840;10.762;2022-10-16T17:28:28;14.90;99.90
8557;DHT22;4316;53.840;10.762;2022-10-16T17:30:54;15.00;99.90
8557;DHT22;4316;53.840;10.762;2022-10-16T17:33:19;15.00;99.90
8557;DHT22;4316;53.840;10.762;2022-10-16T17:35:45;14.90;99.90
8557;DHT22;4316;53.840;10.762;2022-10-16T17:38:13;14.90;99.90
8557;DHT22;4316;53.840;10.762;2022-10-16T17:40:39;14.90;99.90
8557;DHT22;4316;53.840;10.762;2022-10-16T17:43:06;14.90;99.90
8557;DHT22;4316;53.840;10.762;2022-10-16T17:45:35;14.90;99.90
8557;DHT22;4316;53.840;10.762;2022-10-16T17:48:05;15.00;99.90
8557;DHT22;4316;53.840;10.762;2022-10-16T17:50:31;15.00;99.90
8557;DHT22;4316;53.840;10.762;2022-10-16T17:52:56;14.90;99.90
8557;DHT22;4316;53.840;10.762;2022-10-16T17:55:22;14.90;99.90
8557;DHT22;4316;53.840;10.762;2022-10-16T17:57:48;14.80;99.90
8557;DHT22;4316;53.840;10.762;2022-10-16T18:00:14;14.80;99.90
8557;DHT22;4316;53.840;10.762;2022-10-16T18:02:40;14.70;99.90
8557;DHT22;4316;53.840;10.762;2022-10-16T18:05:08;14.70;99.90
8557;DHT22;4316;53.840;10.762;2022-10-16T18:07:34;14.60;99.90
8557;DHT22;4316;53.840;10.762;2022-10-16T18:10:00;14.50;99.90
8557;DHT22;4316;53.840;10.762;2022-10-16T18:12:28;14.40;99.90
8557;DHT22;4316;53.840;10.762;2022-10-16T18:14:54;14.40;99.90
8557;DHT22;4316;53.840;10.762;2022-10-16T18:17:25;14.40;99.90
8557;DHT22;4316;53.840;10.762;2022-10-16T18:19:51;14.40;99.90
8557;DHT22;4316;53.840;10.762;2022-10-16T18:22:17;14.40;99.90
8557;DHT22;4316;53.840;10.762;2022-10-16T18:24:43;14.40;99.90
8557;DHT22;4316;53.840;10.762;2022-10-16T18:27:09;14.40;99.90
8557;DHT22;4316;53.840;10.762;2022-10-16T18:29:34;14.30;99.90
8557;DHT22;4316;53.840;10.762;2022-10-16T18:32:02;14.30;99.90
8557;DHT22;4316;53.840;10.762;2022-10-16T18:34:27;14.30;99.90
8557;DHT22;4316;53.840;10.762;2022-10-16T18:36:54;14.30;99.90
8557;DHT22;4316;53.840;10.762;2022-10-16T18:39:20;14.30;99.90
8557;DHT22;4316;53.840;10.762;2022-10-16T18:41:48;14.30;99.90
8557;DHT22;4316;53.840;10.762;2022-10-16T18:44:16;14.20;99.90
8557;DHT22;4316;53.840;10.762;2022-10-16T18:46:45;14.20;99.90
8557;DHT22;4316;53.840;10.762;2022-10-16T18:49:11;14.20;99.90
8557;DHT22;4316;53.840;10.762;2022-10-16T18:51:39;14.20;99.90
8557;DHT22;4316;53.840;10.762;2022-10-16T18:54:10;14.20;99.90
8557;DHT22;4316;53.840;10.762;2022-10-16T18:56:37;14.10;99.90
8557;DHT22;4316;53.840;10.762;2022-10-16T18:59:06;14.10;99.90
8557;DHT22;4316;53.840;10.762;2022-10-16T19:01:34;14.10;99.90
8557;DHT22;4316;53.840;10.762;2022-10-16T19:04:03;14.00;99.90
8557;DHT22;4316;53.840;10.762;2022-10-16T19:06:33;14.00;99.90
8557;DHT22;4316;53.840;10.762;2022-10-16T19:08:59;13.90;99.90
8557;DHT22;4316;53.840;10.762;2022-10-16T19:11:25;13.80;99.90
8557;DHT22;4316;53.840;10.762;2022-10-16T19:13:52;13.80;99.90
8557;DHT22;4316;53.840;10.762;2022-10-16T19:16:24;13.70;99.90
8557;DHT22;4316;53.840;10.762;2022-10-16T19:18:53;13.70;99.90
8557;DHT22;4316;53.840;10.762;2022-10-16T19:21:20;13.70;99.90
8557;DHT22;4316;53.840;10.762;2022-10-16T19:23:51;13.60;99.90
8557;DHT22;4316;53.840;10.762;2022-10-16T19:26:18;13.60;99.90
8557;DHT22;4316;53.840;10.762;2022-10-16T19:28:44;13.60;99.90
8557;DHT22;4316;53.840;10.762;2022-10-16T19:31:16;13.50;99.90
8557;DHT22;4316;53.840;10.762;2022-10-16T19:33:42;13.50;99.90
8557;DHT22;4316;53.840;10.762;2022-10-16T19:36:11;13.50;99.90
8557;DHT22;4316;53.840;10.762;2022-10-16T19:38:38;13.50;99.90
8557;DHT22;4316;53.840;10.762;2022-10-16T19:41:09;13.40;99.90
8557;DHT22;4316;53.840;10.762;2022-10-16T19:43:36;13.40;99.90
8557;DHT22;4316;53.840;10.762;2022-10-16T19:46:03;13.40;99.90
8557;DHT22;4316;53.840;10.762;2022-10-16T19:48:29;13.30;99.90
8557;DHT22;4316;53.840;10.762;2022-10-16T19:50:55;13.30;99.90
8557;DHT22;4316;53.840;10.762;2022-10-16T19:53:20;13.20;99.90
8557;DHT22;4316;53.840;10.762;2022-10-16T19:55:46;13.20;99.90
8557;DHT22;4316;53.840;10.762;2022-10-16T19:58:12;13.10;99.90
8557;DHT22;4316;53.840;10.762;2022-10-16T20:00:40;13.10;99.90
8557;DHT22;4316;53.840;10.762;2022-10-16T20:03:06;13.10;99.90
8557;DHT22;4316;53.840;10.762;2022-10-16T20:05:32;13.00;99.90
8557;DHT22;4316;53.840;10.762;2022-10-16T20:07:58;13.00;99.90
8557;DHT22;4316;53.840;10.762;2022-10-16T20:10:24;13.00;99.90
8557;DHT22;4316;53.840;10.762;2022-10-16T20:12:51;12.90;99.90
8557;DHT22;4316;53.840;10.762;2022-10-16T20:15:17;12.80;99.90
8557;DHT22;4316;53.840;10.762;2022-10-16T20:17:43;12.80;99.90
8557;DHT22;4316;53.840;10.762;2022-10-16T20:20:09;12.80;99.90
8557;DHT22;4316;53.840;10.762;2022-10-16T20:22:34;12.70;99.90
8557;DHT22;4316;53.840;10.762;2022-10-16T20:25:00;12.70;99.90
8557;DHT22;4316;53.840;10.762;2022-10-16T20:27:26;12.60;99.90
8557;DHT22;4316;53.840;10.762;2022-10-16T20:29:54;12.60;99.90
8557;DHT22;4316;53.840;10.762;2022-10-16T20:32:20;12.60;99.90
8557;DHT22;4316;53.840;10.762;2022-10-16T20:34:46;12.50;99.90
8557;DHT22;4316;53.840;10.762;2022-10-16T20:37:17;12.50;99.90
8557;DHT22;4316;53.840;10.762;2022-10-16T20:39:43;12.50;99.90
8557;DHT22;4316;53.840;10.762;2022-10-16T20:42:10;12.50;99.90
8557;DHT22;4316;53.840;10.762;2022-10-16T20:44:36;12.40;99.90
8557;DHT22;4316;53.840;10.762;2022-10-16T20:47:02;12.40;99.90
8557;DHT22;4316;53.840;10.762;2022-10-16T20:49:27;12.40;99.90
8557;DHT22;4316;53.840;10.762;2022-10-16T20:51:54;12.40;99.90
8557;DHT22;4316;53.840;10.762;2022-10-16T20:54:20;12.40;99.90
8557;DHT22;4316;53.840;10.762;2022-10-16T20:56:46;12.30;99.90
8557;DHT22;4316;53.840;10.762;2022-10-16T20:59:12;12.30;99.90
8557;DHT22;4316;53.840;10.762;2022-10-16T21:01:39;12.30;99.90
8557;DHT22;4316;53.840;10.762;2022-10-16T21:04:07;12.30;99.90
8557;DHT22;4316;53.840;10.762;2022-10-16T21:06:34;12.30;99.90
8557;DHT22;4316;53.840;10.762;2022-10-16T21:09:01;12.30;99.90
8557;DHT22;4316;53.840;10.762;2022-10-16T21:11:30;12.20;99.90
8557;DHT22;4316;53.840;10.762;2022-10-16T21:13:58;12.20;99.90
8557;DHT22;4316;53.840;10.762;2022-10-16T21:16:24;12.20;99.90
8557;DHT22;4316;53.840;10.762;2022-10-16T21:18:50;12.20;99.90
8557;DHT22;4316;53.840;10.762;2022-10-16T21:21:38;12.20;99.90
8557;DHT22;4316;53.840;10.762;2022-10-16T21:24:04;12.20;99.90
8557;DHT22;4316;53.840;10.762;2022-10-16T21:26:30;12.20;99.90
8557;DHT22;4316;53.840;10.762;2022-10-16T21:29:02;12.10;99.90
8557;DHT22;4316;53.840;10.762;2022-10-16T21:31:28;12.20;99.90
8557;DHT22;4316;53.840;10.762;2022-10-16T21:33:55;12.20;99.90
8557;DHT22;4316;53.840;10.762;2022-10-16T21:36:29;12.10;99.90
8557;DHT22;4316;53.840;10.762;2022-10-16T21:38:58;12.10;99.90
8557;DHT22;4316;53.840;10.762;2022-10-16T21:41:28;12.10;99.90
8557;DHT22;4316;53.840;10.762;2022-10-16T21:43:55;12.10;99.90
8557;DHT22;4316;53.840;10.762;2022-10-16T21:46:24;12.00;99.90
8557;DHT22;4316;53.840;10.762;2022-10-16T21:48:54;12.00;99.90
8557;DHT22;4316;53.840;10.762;2022-10-16T21:51:20;12.10;99.90
8557;DHT22;4316;53.840;10.762;2022-10-16T21:53:49;12.00;99.90
8557;DHT22;4316;53.840;10.762;2022-10-16T21:56:16;12.00;99.90
8557;DHT22;4316;53.840;10.762;2022-10-16T21:58:43;12.00;99.90
8557;DHT22;4316;53.840;10.762;2022-10-16T22:01:13;12.00;99.90
8557;DHT22;4316;53.840;10.762;2022-10-16T22:03:47;11.90;99.90
8557;DHT22;4316;53.840;10.762;2022-10-16T22:06:15;11.80;99.90
8557;DHT22;4316;53.840;10.762;2022-10-16T22:08:41;11.80;99.90
8557;DHT22;4316;53.840;10.762;2022-10-16T22:11:13;11.80;99.90
8557;DHT22;4316;53.840;10.762;2022-10-16T22:13:40;11.70;99.90
8557;DHT22;4316;53.840;10.762;2022-10-16T22:16:06;11.80;99.90
8557;DHT22;4316;53.840;10.762;2022-10-16T22:18:33;11.80;99.90
8557;DHT22;4316;53.840;10.762;2022-10-16T22:21:00;11.80;99.90
8557;DHT22;4316;53.840;10.762;2022-10-16T22:23:27;11.80;99.90
8557;DHT22;4316;53.840;10.762;2022-10-16T22:26:02;11.80;99.90
8557;DHT22;4316;53.840;10.762;2022-10-16T22:28:27;11.80;99.90
8557;DHT22;4316;53.840;10.762;2022-10-16T22:30:53;11.70;99.90
8557;DHT22;4316;53.840;10.762;2022-10-16T22:33:19;11.80;99.90
8557;DHT22;4316;53.840;10.762;2022-10-16T22:35:45;11.80;99.90
8557;DHT22;4316;53.840;10.762;2022-10-16T22:38:10;11.80;99.90
8557;DHT22;4316;53.840;10.762;2022-10-16T22:40:37;11.80;99.90
8557;DHT22;4316;53.840;10.762;2022-10-16T22:43:04;11.80;99.90
8557;DHT22;4316;53.840;10.762;2022-10-16T22:45:34;11.70;99.90
8557;DHT22;4316;53.840;10.762;2022-10-16T22:48:00;11.70;99.90
8557;DHT22;4316;53.840;10.762;2022-10-16T22:50:26;11.70;99.90
8557;DHT22;4316;53.840;10.762;2022-10-16T22:52:53;11.70;99.90
8557;DHT22;4316;53.840;10.762;2022-10-16T22:55:19;11.70;99.90
8557;DHT22;4316;53.840;10.762;2022-10-16T22:57:45;11.70;99.90
8557;DHT22;4316;53.840;10.762;2022-10-16T23:00:14;11.70;99.90
8557;DHT22;4316;53.840;10.762;2022-10-16T23:02:41;11.60;99.90
8557;DHT22;4316;53.840;10.762;2022-10-16T23:05:08;11.80;99.90
8557;DHT22;4316;53.840;10.762;2022-10-16T23:07:35;11.60;99.90
8557;DHT22;4316;53.840;10.762;2022-10-16T23:10:02;11.60;99.90
8557;DHT22;4316;53.840;10.762;2022-10-16T23:12:27;11.60;99.90
8557;DHT22;4316;53.840;10.762;2022-10-16T23:14:53;11.60;99.90
8557;DHT22;4316;53.840;10.762;2022-10-16T23:17:19;11.60;99.90
8557;DHT22;4316;53.840;10.762;2022-10-16T23:19:45;11.70;99.90
8557;DHT22;4316;53.840;10.762;2022-10-16T23:22:11;11.70;99.90
8557;DHT22;4316;53.840;10.762;2022-10-16T23:24:37;11.70;99.90
8557;DHT22;4316;53.840;10.762;2022-10-16T23:27:03;11.60;99.90
8557;DHT22;4316;53.840;10.762;2022-10-16T23:29:28;11.70;99.90
8557;DHT22;4316;53.840;10.762;2022-10-16T23:31:55;11.70;99.90
8557;DHT22;4316;53.840;10.762;2022-10-16T23:34:22;11.60;99.90
8557;DHT22;4316;53.840;10.762;2022-10-16T23:36:51;11.60;99.90
8557;DHT22;4316;53.840;10.762;2022-10-16T23:39:17;11.60;99.90
8557;DHT22;4316;53.840;10.762;2022-10-16T23:41:42;11.50;99.90
8557;DHT22;4316;53.840;10.762;2022-10-16T23:44:08;11.60;99.90
8557;DHT22;4316;53.840;10.762;2022-10-16T23:46:34;11.60;99.90
8557;DHT22;4316;53.840;10.762;2022-10-16T23:49:00;11.60;99.90
8557;DHT22;4316;53.840;10.762;2022-10-16T23:51:26;11.60;99.90
8557;DHT22;4316;53.840;10.762;2022-10-16T23:53:52;11.70;99.90
8557;DHT22;4316;53.840;10.762;2022-10-16T23:56:18;11.70;99.90
8557;DHT22;4316;53.840;10.762;2022-10-16T23:58:44;11.70;99.90
